createdAt,value
2018-12-07T00:00:55.164Z,87.07
2018-12-07T00:01:55.175Z,88.59
2018-12-07T00:02:55.181Z,89.72
2018-12-07T00:03:55.189Z,90.01
2018-12-07T00:04:55.201Z,89.63
2018-12-07T00:05:55.211Z,88.96
2018-12-07T00:06:55.219Z,88.40
2018-12-07T00:07:55.229Z,88.21
2018-12-07T00:08:55.239Z,87.54
2018-12-07T00:09:55.251Z,89.15
2018-12-07T00:10:55.260Z,89.63
2018-12-07T00:11:55.265Z,90.39
2018-12-07T00:12:55.279Z,90.39
2018-12-07T00:13:55.283Z,90.48
2018-12-07T00:14:55.293Z,89.82
2018-12-07T00:15:55.302Z,90.48
2018-12-07T00:16:55.311Z,90.95
2018-12-07T00:17:55.325Z,91.52
2018-12-07T00:18:55.328Z,92.76
2018-12-07T00:19:55.338Z,92.85
2018-12-07T00:20:55.353Z,92.85
2018-12-07T00:21:55.367Z,93.23
2018-12-07T00:22:55.367Z,92.38
2018-12-07T00:23:55.376Z,91.52
2018-12-07T00:24:55.389Z,91.14
2018-12-07T00:25:55.395Z,90.58
2018-12-07T00:26:55.401Z,90.67
2018-12-07T00:27:55.412Z,90.39
2018-12-07T00:28:55.424Z,89.82
2018-12-07T00:29:55.431Z,88.68
2018-12-07T00:30:55.440Z,88.02
2018-12-07T00:31:55.451Z,88.30
2018-12-07T00:32:55.459Z,88.21
2018-12-07T00:33:55.467Z,88.68
2018-12-07T00:34:55.476Z,89.34
2018-12-07T00:35:55.486Z,89.44
2018-12-07T00:36:55.495Z,89.72
2018-12-07T00:37:55.505Z,89.91
2018-12-07T00:38:55.513Z,88.68
2018-12-07T00:39:55.522Z,88.87
2018-12-07T00:40:55.530Z,89.34
2018-12-07T00:41:55.541Z,90.10
2018-12-07T00:42:55.548Z,90.39
2018-12-07T00:43:55.565Z,90.20
2018-12-07T00:44:55.569Z,90.01
2018-12-07T00:45:55.578Z,90.20
2018-12-07T00:46:55.585Z,89.72
2018-12-07T00:47:55.599Z,90.10
2018-12-07T00:48:55.606Z,89.91
2018-12-07T00:49:55.618Z,89.44
2018-12-07T00:50:55.624Z,89.53
2018-12-07T00:51:55.634Z,89.91
2018-12-07T00:52:55.645Z,89.72
2018-12-07T00:53:55.651Z,89.72
2018-12-07T00:54:55.664Z,91.05
2018-12-07T00:55:55.669Z,92.00
2018-12-07T00:56:55.678Z,93.80
2018-12-07T00:57:55.688Z,94.18
2018-12-07T00:58:55.697Z,95.31
2018-12-07T00:59:55.705Z,95.88
2018-12-07T01:00:55.716Z,96.26
2018-12-07T01:01:55.724Z,97.02
2018-12-07T01:02:55.733Z,97.30
2018-12-07T01:03:55.745Z,97.02
2018-12-07T01:04:55.751Z,96.45
2018-12-07T01:05:55.766Z,96.07
2018-12-07T01:06:55.771Z,96.64
2018-12-07T01:07:55.781Z,96.92
2018-12-07T01:08:55.793Z,97.59
2018-12-07T01:09:55.801Z,97.49
2018-12-07T01:10:55.807Z,98.06
2018-12-07T01:11:55.818Z,97.97
2018-12-07T01:12:55.828Z,97.87
2018-12-07T01:13:55.839Z,98.16
2018-12-07T01:14:55.847Z,97.59
2018-12-07T01:15:55.857Z,96.36
2018-12-07T01:16:55.866Z,95.12
2018-12-07T01:17:55.872Z,95.41
2018-12-07T01:18:55.886Z,96.07
2018-12-07T01:19:55.893Z,96.07
2018-12-07T01:20:55.905Z,96.55
2018-12-07T01:21:55.924Z,96.26
2018-12-07T01:22:55.943Z,95.88
2018-12-07T01:23:55.934Z,95.69
2018-12-07T01:24:55.943Z,95.03
2018-12-07T01:25:55.952Z,95.60
2018-12-07T01:26:55.959Z,97.30
2018-12-07T01:27:55.970Z,97.78
2018-12-07T01:28:55.979Z,97.97
2018-12-07T01:29:55.987Z,97.59
2018-12-07T01:30:55.997Z,97.87
2018-12-07T01:31:56.006Z,97.21
2018-12-07T01:32:56.016Z,96.83
2018-12-07T01:33:56.028Z,97.21
2018-12-07T01:34:56.036Z,97.11
2018-12-07T01:35:56.044Z,96.55
2018-12-07T01:36:56.055Z,96.55
2018-12-07T01:37:56.068Z,96.45
2018-12-07T01:38:56.077Z,95.88
2018-12-07T01:39:56.083Z,96.17
2018-12-07T01:40:56.093Z,96.55
2018-12-07T01:41:56.106Z,95.50
2018-12-07T01:42:56.111Z,93.99
2018-12-07T01:43:56.121Z,92.66
2018-12-07T01:44:56.130Z,91.33
2018-12-07T01:45:56.140Z,90.10
2018-12-07T01:46:56.149Z,89.82
2018-12-07T01:47:56.160Z,90.39
2018-12-07T01:48:56.167Z,88.78
2018-12-07T01:49:56.178Z,86.79
2018-12-07T01:50:56.185Z,86.12
2018-12-07T01:51:56.197Z,86.22
2018-12-07T01:52:56.210Z,86.31
2018-12-07T01:53:56.215Z,85.36
2018-12-07T01:54:56.223Z,84.13
2018-12-07T01:55:56.233Z,83.94
2018-12-07T01:56:56.243Z,85.17
2018-12-07T01:57:56.253Z,84.23
2018-12-07T01:58:56.262Z,85.27
2018-12-07T01:59:56.273Z,85.55
2018-12-07T02:00:56.283Z,85.74
2018-12-07T02:01:56.289Z,85.93
2018-12-07T02:02:56.299Z,87.35
2018-12-07T02:03:56.307Z,88.21
2018-12-07T02:04:56.316Z,89.82
2018-12-07T02:05:56.327Z,91.05
2018-12-07T02:06:56.335Z,91.52
2018-12-07T02:07:56.344Z,92.76
2018-12-07T02:08:56.354Z,91.90
2018-12-07T02:09:56.367Z,91.14
2018-12-07T02:10:56.373Z,90.29
2018-12-07T02:11:56.384Z,90.10
2018-12-07T02:12:56.392Z,90.77
2018-12-07T02:13:56.401Z,91.05
2018-12-07T02:14:56.410Z,91.14
2018-12-07T02:15:56.421Z,91.33
2018-12-07T02:16:56.430Z,91.24
2018-12-07T02:17:56.441Z,91.14
2018-12-07T02:18:56.446Z,91.43
2018-12-07T02:19:56.457Z,91.14
2018-12-07T02:20:56.466Z,91.24
2018-12-07T02:21:56.476Z,91.14
2018-12-07T02:22:56.485Z,91.05
2018-12-07T02:23:56.492Z,90.86
2018-12-07T02:24:56.505Z,90.29
2018-12-07T02:25:56.514Z,92.76
2018-12-07T02:26:56.521Z,96.07
2018-12-07T02:27:56.533Z,96.83
2018-12-07T02:28:56.542Z,95.88
2018-12-07T02:29:56.552Z,94.56
2018-12-07T02:30:56.560Z,92.76
2018-12-07T02:31:56.573Z,92.28
2018-12-07T02:32:56.580Z,91.24
2018-12-07T02:33:56.589Z,90.20
2018-12-07T02:34:56.599Z,89.63
2018-12-07T02:35:56.613Z,89.82
2018-12-07T02:36:56.618Z,89.72
2018-12-07T02:37:56.629Z,90.29
2018-12-07T02:38:56.638Z,90.10
2018-12-07T02:39:56.644Z,91.62
2018-12-07T02:40:56.654Z,92.85
2018-12-07T02:41:56.664Z,93.89
2018-12-07T02:42:56.676Z,94.56
2018-12-07T02:43:56.683Z,93.61
2018-12-07T02:44:56.692Z,92.66
2018-12-07T02:45:56.702Z,91.62
2018-12-07T02:46:56.709Z,91.24
2018-12-07T02:47:56.722Z,90.58
2018-12-07T02:48:56.732Z,90.20
2018-12-07T02:49:56.741Z,89.63
2018-12-07T02:50:56.747Z,89.72
2018-12-07T02:51:56.767Z,89.34
2018-12-07T02:52:56.767Z,90.29
2018-12-07T02:53:56.777Z,90.48
2018-12-07T02:54:56.788Z,90.39
2018-12-07T02:55:56.796Z,89.91
2018-12-07T02:56:56.806Z,88.49
2018-12-07T02:57:56.816Z,88.40
2018-12-07T02:58:56.824Z,87.92
2018-12-07T02:59:56.832Z,88.30
2018-12-07T03:00:56.854Z,87.07
2018-12-07T03:01:56.853Z,85.74
2018-12-07T03:02:56.862Z,85.36
2018-12-07T03:03:56.870Z,84.89
2018-12-07T03:04:56.882Z,84.23
2018-12-07T03:05:56.893Z,84.04
2018-12-07T03:06:56.902Z,83.18
2018-12-07T03:07:56.911Z,83.18
2018-12-07T03:08:56.920Z,84.23
2018-12-07T03:09:56.930Z,83.75
2018-12-07T03:10:56.939Z,83.37
2018-12-07T03:11:56.946Z,84.13
2018-12-07T03:12:56.957Z,84.51
2018-12-07T03:13:56.969Z,84.70
2018-12-07T03:14:56.977Z,85.17
2018-12-07T03:15:56.988Z,84.80
2018-12-07T03:16:56.997Z,84.04
2018-12-07T03:17:57.002Z,82.62
2018-12-07T03:18:57.013Z,81.67
2018-12-07T03:19:57.025Z,80.72
2018-12-07T03:20:57.033Z,80.34
2018-12-07T03:21:57.047Z,79.49
2018-12-07T03:22:57.052Z,79.02
2018-12-07T03:23:57.061Z,79.02
2018-12-07T03:24:57.069Z,78.26
2018-12-07T03:25:57.080Z,78.54
2018-12-07T03:26:57.091Z,77.12
2018-12-07T03:27:57.097Z,77.50
2018-12-07T03:28:57.114Z,77.78
2018-12-07T03:29:57.117Z,77.78
2018-12-07T03:30:57.127Z,77.59
2018-12-07T03:31:57.136Z,77.03
2018-12-07T03:32:57.146Z,77.40
2018-12-07T03:33:57.152Z,77.50
2018-12-07T03:34:57.163Z,78.26
2018-12-07T03:35:57.174Z,78.16
2018-12-07T03:36:57.183Z,78.35
2018-12-07T03:37:57.192Z,78.35
2018-12-07T03:38:57.202Z,78.45
2018-12-07T03:39:57.214Z,79.77
2018-12-07T03:40:57.221Z,81.29
2018-12-07T03:41:57.234Z,84.04
2018-12-07T03:42:57.238Z,86.12
2018-12-07T03:43:57.247Z,87.40
2018-12-07T03:44:57.258Z,88.17
2018-12-07T03:45:57.266Z,89.34
2018-12-07T03:46:57.281Z,88.73
2018-12-07T03:47:57.284Z,87.16
2018-12-07T03:48:57.300Z,85.51
2018-12-07T03:49:57.303Z,84.00
2018-12-07T03:50:57.311Z,83.14
2018-12-07T03:51:57.321Z,82.10
2018-12-07T03:52:57.332Z,81.63
2018-12-07T03:53:57.344Z,81.92
2018-12-07T03:54:57.355Z,82.20
2018-12-07T03:55:57.359Z,81.63
2018-12-07T03:56:57.369Z,81.72
2018-12-07T03:57:57.383Z,81.53
2018-12-07T03:58:57.388Z,81.63
2018-12-07T03:59:57.396Z,81.53
2018-12-07T04:00:57.408Z,81.92
2018-12-07T04:01:57.416Z,82.10
2018-12-07T04:02:57.424Z,82.29
2018-12-07T04:03:57.436Z,82.48
2018-12-07T04:04:57.453Z,82.48
2018-12-07T04:05:57.452Z,84.28
2018-12-07T04:06:57.460Z,85.70
2018-12-07T04:07:57.474Z,86.08
2018-12-07T04:08:57.482Z,86.46
2018-12-07T04:09:57.493Z,85.99
2018-12-07T04:10:57.498Z,85.13
2018-12-07T04:11:57.509Z,83.52
2018-12-07T04:12:57.519Z,83.33
2018-12-07T04:13:57.525Z,82.95
2018-12-07T04:14:57.537Z,82.86
2018-12-07T04:15:57.545Z,82.67
2018-12-07T04:16:57.554Z,82.76
2018-12-07T04:17:57.563Z,83.14
2018-12-07T04:18:57.572Z,82.29
2018-12-07T04:19:57.585Z,81.82
2018-12-07T04:20:57.592Z,81.15
2018-12-07T04:21:57.604Z,81.06
2018-12-07T04:22:57.611Z,80.30
2018-12-07T04:23:57.617Z,79.64
2018-12-07T04:24:57.631Z,79.64
2018-12-07T04:25:57.638Z,79.07
2018-12-07T04:26:57.646Z,78.69
2018-12-07T04:27:57.655Z,78.79
2018-12-07T04:28:57.663Z,77.56
2018-12-07T04:29:57.678Z,77.27
2018-12-07T04:30:57.683Z,77.27
2018-12-07T04:31:57.691Z,77.27
2018-12-07T04:32:57.705Z,77.08
2018-12-07T04:33:57.714Z,76.80
2018-12-07T04:34:57.720Z,76.42
2018-12-07T04:35:57.729Z,76.04
2018-12-07T04:36:57.737Z,76.04
2018-12-07T04:37:57.747Z,75.57
2018-12-07T04:38:57.757Z,75.28
2018-12-07T04:39:57.764Z,75.47
2018-12-07T04:40:57.778Z,75.76
2018-12-07T04:41:57.785Z,75.85
2018-12-07T04:42:57.795Z,76.14
2018-12-07T04:43:57.805Z,77.27
2018-12-07T04:44:57.812Z,77.08
2018-12-07T04:45:57.829Z,77.56
2018-12-07T04:46:57.831Z,77.46
2018-12-07T04:47:57.837Z,76.89
2018-12-07T04:48:57.847Z,76.89
2018-12-07T04:49:57.858Z,77.08
2018-12-07T04:50:57.867Z,76.61
2018-12-07T04:51:57.880Z,75.28
2018-12-07T04:52:57.887Z,75.00
2018-12-07T04:53:57.904Z,75.09
2018-12-07T04:54:57.903Z,75.28
2018-12-07T04:55:57.918Z,75.38
2018-12-07T04:56:57.921Z,75.47
2018-12-07T04:57:57.933Z,74.71
2018-12-07T04:58:57.943Z,74.90
2018-12-07T04:59:57.951Z,75.09
2018-12-07T05:00:57.965Z,74.43
2018-12-07T05:01:57.970Z,74.37
2018-12-07T05:02:57.978Z,74.09
2018-12-07T05:03:57.985Z,73.86
2018-12-07T05:04:58.000Z,74.28
2018-12-07T05:05:58.006Z,74.24
2018-12-07T05:06:58.013Z,74.24
2018-12-07T05:07:58.022Z,74.75
2018-12-07T05:08:58.032Z,75.19
2018-12-07T05:09:58.042Z,75.00
2018-12-07T05:10:58.050Z,74.90
2018-12-07T05:11:58.060Z,74.15
2018-12-07T05:12:58.070Z,72.92
2018-12-07T05:13:58.080Z,73.11
2018-12-07T05:14:58.087Z,72.63
2018-12-07T05:15:58.099Z,72.53
2018-12-07T05:16:58.107Z,70.68
2018-12-07T05:17:58.117Z,70.58
2018-12-07T05:18:58.125Z,70.20
2018-12-07T05:19:58.138Z,69.54
2018-12-07T05:20:58.145Z,69.45
2018-12-07T05:21:58.155Z,69.54
2018-12-07T05:22:58.161Z,69.73
2018-12-07T05:23:58.170Z,70.58
2018-12-07T05:24:58.181Z,70.39
2018-12-07T05:25:58.195Z,70.11
2018-12-07T05:26:58.200Z,70.39
2018-12-07T05:27:58.211Z,69.64
2018-12-07T05:28:58.220Z,69.07
2018-12-07T05:29:58.236Z,66.99
2018-12-07T05:30:58.235Z,65.66
2018-12-07T05:31:58.250Z,65.47
2018-12-07T05:32:58.254Z,66.13
2018-12-07T05:33:58.264Z,66.80
2018-12-07T05:34:58.273Z,67.08
2018-12-07T05:35:58.284Z,67.74
2018-12-07T05:36:58.294Z,68.31
2018-12-07T05:37:58.305Z,68.02
2018-12-07T05:38:58.310Z,68.40
2018-12-07T05:39:58.322Z,68.02
2018-12-07T05:40:58.331Z,67.83
2018-12-07T05:41:58.341Z,67.93
2018-12-07T05:42:58.350Z,68.50
2018-12-07T05:43:58.363Z,67.74
2018-12-07T05:44:58.368Z,67.18
2018-12-07T05:45:58.379Z,67.46
2018-12-07T05:46:58.389Z,67.83
2018-12-07T05:47:58.395Z,67.65
2018-12-07T05:48:58.403Z,68.12
2018-12-07T05:49:58.416Z,68.88
2018-12-07T05:50:58.423Z,69.54
2018-12-07T05:51:58.438Z,69.64
2018-12-07T05:52:58.451Z,69.45
2018-12-07T05:53:58.452Z,69.35
2018-12-07T05:54:58.462Z,69.45
2018-12-07T05:55:58.471Z,69.64
2018-12-07T05:56:58.483Z,68.12
2018-12-07T05:57:58.491Z,68.79
2018-12-07T05:58:58.499Z,69.54
2018-12-07T05:59:58.509Z,69.45
2018-12-07T06:00:58.519Z,69.54
2018-12-07T06:01:58.528Z,69.45
2018-12-07T06:02:58.539Z,69.45
2018-12-07T06:03:58.548Z,69.17
2018-12-07T06:04:58.557Z,68.21
2018-12-07T06:05:58.565Z,67.93
2018-12-07T06:06:58.575Z,67.93
2018-12-07T06:07:58.582Z,68.40
2018-12-07T06:08:58.594Z,67.83
2018-12-07T06:09:58.603Z,68.02
2018-12-07T06:10:58.613Z,68.40
2018-12-07T06:11:58.621Z,68.02
2018-12-07T06:12:58.632Z,68.31
2018-12-07T06:13:58.639Z,67.65
2018-12-07T06:14:58.651Z,67.27
2018-12-07T06:15:58.658Z,67.36
2018-12-07T06:16:58.668Z,67.27
2018-12-07T06:17:58.678Z,66.60
2018-12-07T06:18:58.686Z,65.37
2018-12-07T06:19:58.694Z,66.22
2018-12-07T06:20:58.706Z,67.27
2018-12-07T06:21:58.715Z,67.46
2018-12-07T06:22:58.722Z,67.18
2018-12-07T06:23:58.735Z,67.27
2018-12-07T06:24:58.740Z,67.46
2018-12-07T06:25:58.752Z,67.65
2018-12-07T06:26:58.762Z,67.46
2018-12-07T06:27:58.774Z,66.51
2018-12-07T06:28:58.778Z,66.41
2018-12-07T06:29:58.789Z,66.13
2018-12-07T06:30:58.798Z,67.46
2018-12-07T06:31:58.810Z,67.27
2018-12-07T06:32:58.820Z,67.83
2018-12-07T06:33:58.827Z,67.83
2018-12-07T06:34:58.836Z,67.74
2018-12-07T06:35:58.846Z,67.83
2018-12-07T06:36:58.855Z,67.65
2018-12-07T06:37:58.866Z,67.24
2018-12-07T06:38:58.872Z,66.99
2018-12-07T06:39:58.885Z,67.08
2018-12-07T06:40:58.894Z,66.99
2018-12-07T06:41:58.908Z,67.08
2018-12-07T06:42:58.913Z,66.80
2018-12-07T06:43:58.919Z,67.18
2018-12-07T06:44:58.935Z,67.83
2018-12-07T06:45:58.938Z,67.18
2018-12-07T06:46:58.948Z,67.99
2018-12-07T06:47:58.958Z,68.21
2018-12-07T06:48:58.968Z,68.40
2018-12-07T06:49:58.976Z,68.59
2018-12-07T06:50:58.985Z,68.88
2018-12-07T06:51:58.995Z,68.65
2018-12-07T06:52:59.004Z,68.50
2018-12-07T06:53:59.018Z,69.73
2018-12-07T06:54:59.024Z,69.73
2018-12-07T06:55:59.041Z,70.58
2018-12-07T06:56:59.045Z,71.50
2018-12-07T06:57:59.050Z,72.00
2018-12-07T06:58:59.060Z,72.67
2018-12-07T06:59:59.071Z,73.33
2018-12-07T07:00:59.078Z,72.67
2018-12-07T07:01:59.089Z,71.72
2018-12-07T07:02:59.099Z,70.87
2018-12-07T07:03:59.107Z,71.34
2018-12-07T07:04:59.120Z,71.91
2018-12-07T07:05:59.127Z,72.38
2018-12-07T07:06:59.140Z,70.39
2018-12-07T07:07:59.144Z,69.45
2018-12-07T07:08:59.162Z,69.07
2018-12-07T07:09:59.167Z,69.54
2018-12-07T07:10:59.173Z,69.92
2018-12-07T07:11:59.183Z,70.30
2018-12-07T07:12:59.199Z,70.97
2018-12-07T07:13:59.201Z,71.44
2018-12-07T07:14:59.210Z,71.25
2018-12-07T07:15:59.221Z,71.25
2018-12-07T07:16:59.228Z,71.25
2018-12-07T07:17:59.239Z,70.78
2018-12-07T07:18:59.249Z,70.49
2018-12-07T07:19:59.257Z,70.01
2018-12-07T07:20:59.266Z,69.26
2018-12-07T07:21:59.283Z,68.69
2018-12-07T07:22:59.286Z,67.36
2018-12-07T07:23:59.298Z,67.46
2018-12-07T07:24:59.303Z,66.70
2018-12-07T07:25:59.316Z,68.02
2018-12-07T07:26:59.322Z,68.40
2018-12-07T07:27:59.333Z,68.69
2018-12-07T07:28:59.349Z,69.17
2018-12-07T07:29:59.353Z,68.79
2018-12-07T07:30:59.362Z,69.45
2018-12-07T07:31:59.372Z,70.30
2018-12-07T07:32:59.381Z,70.68
2018-12-07T07:33:59.390Z,70.68
2018-12-07T07:34:59.401Z,70.49
2018-12-07T07:35:59.409Z,69.64
2018-12-07T07:36:59.424Z,69.64
2018-12-07T07:37:59.431Z,68.69
2018-12-07T07:38:59.437Z,68.59
2018-12-07T07:39:59.451Z,68.79
2018-12-07T07:40:59.456Z,69.92
2018-12-07T07:41:59.467Z,69.45
2018-12-07T07:42:59.474Z,68.79
2018-12-07T07:43:59.487Z,68.40
2018-12-07T07:44:59.494Z,69.07
2018-12-07T07:45:59.506Z,69.82
2018-12-07T07:46:59.516Z,69.82
2018-12-07T07:47:59.524Z,69.35
2018-12-07T07:48:59.534Z,70.11
2018-12-07T07:49:59.543Z,70.15
2018-12-07T07:50:59.552Z,70.30
2018-12-07T07:51:59.566Z,70.20
2018-12-07T07:52:59.572Z,69.67
2018-12-07T07:53:59.583Z,70.01
2018-12-07T07:54:59.594Z,70.34
2018-12-07T07:55:59.600Z,70.62
2018-12-07T07:56:59.615Z,71.38
2018-12-07T07:57:59.622Z,71.66
2018-12-07T07:58:59.629Z,71.66
2018-12-07T07:59:59.641Z,71.57
2018-12-07T08:00:59.651Z,71.66
2018-12-07T08:01:59.658Z,72.14
2018-12-07T08:02:59.993Z,72.23
2018-12-07T08:03:59.679Z,71.38
2018-12-07T08:04:59.688Z,71.95
2018-12-07T08:05:59.698Z,72.14
2018-12-07T08:06:59.711Z,72.42
2018-12-07T08:07:59.720Z,71.38
2018-12-07T08:08:59.729Z,70.34
2018-12-07T08:09:59.737Z,70.62
2018-12-07T08:10:59.745Z,71.38
2018-12-07T08:11:59.758Z,71.47
2018-12-07T08:12:59.768Z,69.96
2018-12-07T08:13:59.781Z,68.25
2018-12-07T08:14:59.784Z,66.07
2018-12-07T08:15:59.804Z,66.16
2018-12-07T08:16:59.808Z,67.49
2018-12-07T08:17:59.818Z,67.58
2018-12-07T08:18:59.824Z,68.44
2018-12-07T08:19:59.835Z,67.68
2018-12-07T08:20:59.846Z,67.68
2018-12-07T08:21:59.855Z,68.44
2018-12-07T08:22:59.874Z,67.87
2018-12-07T08:23:59.881Z,68.44
2018-12-07T08:24:59.890Z,68.44
2018-12-07T08:25:59.898Z,69.29
2018-12-07T08:26:59.908Z,69.38
2018-12-07T08:27:59.919Z,70.43
2018-12-07T08:28:59.927Z,75.36
2018-12-07T08:29:59.939Z,76.40
2018-12-07T08:30:59.946Z,76.92
2018-12-07T08:31:59.961Z,77.01
2018-12-07T08:32:59.966Z,76.63
2018-12-07T08:34:00.341Z,78.34
2018-12-07T08:34:59.990Z,76.92
2018-12-07T08:35:59.996Z,75.02
2018-12-07T08:37:00.009Z,73.22
2018-12-07T08:38:00.017Z,68.95
2018-12-07T08:39:00.025Z,67.14
2018-12-07T08:40:00.040Z,71.70
2018-12-07T08:41:00.049Z,77.39
2018-12-07T08:42:06.551Z,79.47
2018-12-07T08:43:00.072Z,79.66
2018-12-07T08:44:00.081Z,80.90
2018-12-07T08:45:00.087Z,79.47
2018-12-07T08:46:00.105Z,78.24
2018-12-07T08:47:00.108Z,84.36
2018-12-07T08:48:00.124Z,82.89
2018-12-07T08:49:00.131Z,81.32
2018-12-07T08:50:00.143Z,79.61
2018-12-07T08:51:00.152Z,78.85
2018-12-07T08:52:00.161Z,79.61
2018-12-07T08:53:00.171Z,79.14
2018-12-07T08:54:00.182Z,79.90
2018-12-07T08:55:00.193Z,80.75
2018-12-07T08:56:00.200Z,80.65
2018-12-07T08:57:00.214Z,79.14
2018-12-07T08:58:00.287Z,78.47
2018-12-07T08:59:00.235Z,78.28
2018-12-07T09:00:00.244Z,78.47
2018-12-07T09:01:00.254Z,77.81
2018-12-07T09:02:00.264Z,73.44
2018-12-07T09:03:00.273Z,67.37
2018-12-07T09:04:00.287Z,69.65
2018-12-07T09:05:00.293Z,68.79
2018-12-07T09:06:00.307Z,68.32
2018-12-07T09:07:00.317Z,74.39
2018-12-07T09:08:00.326Z,73.92
2018-12-07T09:09:00.336Z,69.17
2018-12-07T09:10:00.348Z,70.12
2018-12-07T09:11:00.359Z,70.78
2018-12-07T09:12:00.393Z,69.65
2018-12-07T09:13:00.379Z,67.94
2018-12-07T09:14:00.391Z,67.56
2018-12-07T09:15:00.402Z,67.18
2018-12-07T09:16:00.413Z,66.33
2018-12-07T09:17:00.421Z,65.56
2018-12-07T09:18:00.434Z,64.33
2018-12-07T09:19:00.442Z,65.09
2018-12-07T09:20:00.453Z,65.95
2018-12-07T09:21:00.470Z,67.08
2018-12-07T09:22:00.475Z,68.13
2018-12-07T09:23:00.486Z,68.13
2018-12-07T09:24:00.496Z,67.75
2018-12-07T09:25:00.508Z,67.75
2018-12-07T09:26:00.518Z,66.52
2018-12-07T09:27:00.528Z,62.82
2018-12-07T09:28:00.539Z,62.18
2018-12-07T09:29:00.551Z,59.05
2018-12-07T09:30:00.564Z,59.11
2018-12-07T09:31:00.573Z,58.67
2018-12-07T09:32:00.582Z,58.76
2018-12-07T09:33:00.595Z,59.24
2018-12-07T09:34:00.604Z,60.38
2018-12-07T09:35:00.615Z,60.47
2018-12-07T09:36:00.625Z,60.47
2018-12-07T09:37:00.637Z,61.80
2018-12-07T09:38:00.649Z,63.13
2018-12-07T09:39:00.657Z,63.51
2018-12-07T09:40:00.682Z,62.66
2018-12-07T09:41:00.681Z,63.98
2018-12-07T09:42:00.696Z,62.75
2018-12-07T09:43:00.703Z,61.90
2018-12-07T09:44:00.716Z,61.99
2018-12-07T09:45:00.735Z,63.32
2018-12-07T09:46:00.735Z,61.99
2018-12-07T09:47:00.749Z,60.19
2018-12-07T09:48:00.759Z,59.14
2018-12-07T09:49:00.767Z,57.65
2018-12-07T09:50:00.780Z,58.89
2018-12-07T09:51:00.790Z,59.55
2018-12-07T09:52:00.802Z,60.79
2018-12-07T09:53:00.814Z,61.74
2018-12-07T09:54:00.825Z,62.02
2018-12-07T09:55:00.837Z,61.26
2018-12-07T09:56:00.847Z,63.07
2018-12-07T09:57:00.859Z,64.69
2018-12-07T09:58:00.871Z,64.87
2018-12-07T09:59:00.882Z,65.35
2018-12-07T10:00:00.897Z,65.35
2018-12-07T10:01:00.906Z,64.11
2018-12-07T10:02:00.916Z,65.35
2018-12-07T10:03:00.930Z,63.07
2018-12-07T10:04:00.940Z,64.40
2018-12-07T10:05:00.955Z,65.19
2018-12-07T10:06:00.963Z,66.05
2018-12-07T10:07:00.979Z,64.62
2018-12-07T10:08:00.984Z,63.39
2018-12-07T10:09:00.996Z,61.77
2018-12-07T10:10:01.017Z,60.91
2018-12-07T10:11:01.021Z,58.32
2018-12-07T10:12:01.033Z,58.89
2018-12-07T10:13:07.715Z,60.22
2018-12-07T10:14:01.060Z,61.01
2018-12-07T10:15:01.067Z,62.43
2018-12-07T10:16:01.078Z,62.72
2018-12-07T10:17:01.095Z,61.77
2018-12-07T10:18:01.102Z,60.53
2018-12-07T10:19:01.113Z,61.96
2018-12-07T10:20:01.130Z,59.01
2018-12-07T10:21:01.141Z,58.73
2018-12-07T10:22:01.152Z,59.58
2018-12-07T10:23:01.163Z,59.17
2018-12-07T10:24:01.175Z,59.01
2018-12-07T10:25:01.184Z,60.06
2018-12-07T10:26:01.198Z,60.35
2018-12-07T10:27:01.217Z,60.72
2018-12-07T10:28:01.222Z,63.39
2018-12-07T10:29:01.247Z,63.48
2018-12-07T10:30:01.247Z,63.86
2018-12-07T10:31:01.335Z,63.20
2018-12-07T10:32:01.280Z,64.05
2018-12-07T10:33:01.307Z,63.57
2018-12-07T10:34:01.293Z,65.86
2018-12-07T10:35:01.305Z,65.38
2018-12-07T10:36:01.317Z,64.65
2018-12-07T10:37:01.329Z,62.94
2018-12-07T10:38:01.342Z,60.47
2018-12-07T10:39:01.353Z,58.09
2018-12-07T10:40:01.364Z,60.50
2018-12-07T10:41:01.376Z,62.94
2018-12-07T10:42:01.393Z,63.60
2018-12-07T10:43:01.401Z,65.03
2018-12-07T10:44:01.415Z,65.70
2018-12-07T10:45:01.426Z,65.70
2018-12-07T10:46:01.441Z,65.45
2018-12-07T10:47:01.449Z,65.83
2018-12-07T10:48:01.462Z,66.49
2018-12-07T10:49:01.476Z,65.92
2018-12-07T10:50:01.488Z,63.07
2018-12-07T10:51:07.777Z,62.72
2018-12-07T10:52:01.515Z,62.08
2018-12-07T10:53:01.528Z,57.45
2018-12-07T10:54:01.540Z,53.89
2018-12-07T10:55:01.554Z,46.09
2018-12-07T10:56:01.565Z,50.92
2018-12-07T10:57:01.577Z,55.55
2018-12-07T10:58:01.590Z,55.93
2018-12-07T10:59:01.602Z,54.63
2018-12-07T11:00:01.620Z,50.73
2018-12-07T11:01:01.629Z,49.49
2018-12-07T11:02:01.642Z,50.63
2018-12-07T11:03:01.657Z,50.94
2018-12-07T11:04:01.667Z,54.88
2018-12-07T11:05:01.682Z,53.54
2018-12-07T11:06:01.696Z,49.44
2018-12-07T11:07:01.708Z,48.02
2018-12-07T11:08:01.721Z,52.30
2018-12-07T11:09:01.736Z,55.22
2018-12-07T11:10:01.750Z,53.54
2018-12-07T11:11:01.760Z,55.35
2018-12-07T11:12:01.775Z,46.87
2018-12-07T11:13:01.789Z,42.01
2018-12-07T11:14:01.803Z,41.75
2018-12-07T11:15:01.818Z,47.30
2018-12-07T11:16:01.829Z,53.41
2018-12-07T11:17:01.843Z,57.22
2018-12-07T11:18:01.859Z,55.41
2018-12-07T11:19:01.873Z,53.69
2018-12-07T11:20:01.897Z,51.76
2018-12-07T11:21:01.900Z,52.23
2018-12-07T11:22:01.920Z,51.47
2018-12-07T11:23:01.939Z,53.12
2018-12-07T11:24:01.946Z,55.98
2018-12-07T11:25:01.956Z,53.00
2018-12-07T11:26:01.973Z,56.33
2018-12-07T11:27:01.989Z,57.86
2018-12-07T11:28:02.001Z,58.87
2018-12-07T11:29:02.015Z,58.97
2018-12-07T11:30:02.032Z,58.40
2018-12-07T11:31:02.044Z,58.24
2018-12-07T11:32:02.059Z,55.09
2018-12-07T11:33:02.074Z,52.52
2018-12-07T11:34:02.091Z,51.18
2018-12-07T11:35:02.105Z,52.61
2018-12-07T11:36:08.142Z,47.75
2018-12-07T11:37:02.134Z,43.63
2018-12-07T11:38:02.151Z,41.75
2018-12-07T11:39:02.167Z,39.36
2018-12-07T11:40:02.180Z,40.51
2018-12-07T11:41:02.197Z,38.51
2018-12-07T11:42:02.211Z,42.70
2018-12-07T11:43:02.224Z,49.02
2018-12-07T11:44:02.240Z,52.45
2018-12-07T11:45:02.256Z,54.55
2018-12-07T11:46:02.271Z,52.48
2018-12-07T11:47:02.286Z,51.23
2018-12-07T11:48:02.300Z,50.59
2018-12-07T11:49:02.316Z,49.93
2018-12-07T11:50:02.333Z,51.26
2018-12-07T11:51:02.347Z,49.93
2018-12-07T11:52:02.365Z,45.06
2018-12-07T11:53:02.380Z,44.74
2018-12-07T11:54:02.393Z,46.39
2018-12-07T11:55:02.411Z,46.61
2018-12-07T11:56:02.426Z,46.51
2018-12-07T11:57:02.441Z,44.79
2018-12-07T11:58:02.459Z,41.45
2018-12-07T11:59:02.473Z,45.43
2018-12-07T12:00:02.494Z,52.09
2018-12-07T12:01:02.505Z,54.19
2018-12-07T12:02:02.522Z,50.28
2018-12-07T12:03:02.539Z,49.42
2018-12-07T12:04:02.554Z,52.57
2018-12-07T12:05:02.569Z,55.62
2018-12-07T12:06:02.585Z,55.62
2018-12-07T12:07:02.601Z,54.10
2018-12-07T12:08:02.619Z,56.51
2018-12-07T12:09:02.633Z,55.65
2018-12-07T12:10:02.650Z,55.18
2018-12-07T12:11:02.665Z,55.75
2018-12-07T12:12:02.683Z,56.96
2018-12-07T12:13:02.700Z,58.20
2018-12-07T12:14:02.720Z,56.67
2018-12-07T12:15:02.732Z,56.58
2018-12-07T12:16:02.748Z,58.01
2018-12-07T12:17:02.767Z,56.60
2018-12-07T12:18:02.787Z,57.37
2018-12-07T12:19:02.800Z,55.36
2018-12-07T12:20:02.821Z,53.53
2018-12-07T12:21:02.832Z,54.74
2018-12-07T12:22:02.851Z,56.65
2018-12-07T12:23:02.865Z,55.41
2018-12-07T12:24:02.882Z,55.24
2018-12-07T12:25:02.903Z,55.84
2018-12-07T12:26:02.925Z,53.45
2018-12-07T12:27:02.932Z,55.55
2018-12-07T12:28:02.951Z,54.60
2018-12-07T12:29:02.966Z,52.79
2018-12-07T12:30:02.984Z,55.53
2018-12-07T12:31:03.000Z,56.58
2018-12-07T12:32:03.053Z,56.01
2018-12-07T12:33:03.033Z,57.15
2018-12-07T12:34:03.051Z,57.12
2018-12-07T12:35:03.068Z,56.24
2018-12-07T12:36:03.084Z,57.95
2018-12-07T12:37:03.104Z,58.14
2018-12-07T12:38:03.119Z,58.04
2018-12-07T12:39:03.136Z,55.38
2018-12-07T12:40:03.153Z,54.43
2018-12-07T12:41:03.170Z,52.83
2018-12-07T12:42:03.188Z,51.40
2018-12-07T12:43:03.207Z,49.49
2018-12-07T12:44:03.220Z,47.47
2018-12-07T12:45:03.318Z,48.04
2018-12-07T12:46:03.253Z,47.85
2018-12-07T12:47:03.270Z,47.47
2018-12-07T12:48:03.290Z,50.52
2018-12-07T12:49:03.304Z,51.12
2018-12-07T12:50:03.320Z,51.02
2018-12-07T12:51:03.338Z,52.14
2018-12-07T12:52:03.355Z,52.23
2018-12-07T12:53:03.370Z,54.14